CU-0043 weather

Vertientes Airport
Camag├╝ey, Cuba

Public forecast

Using degrees Celsius for public forecast. Weather courtesy of forecast.io.

METAR (pilot weather report)

Closest report is Ignacio Agramonte International Airport, 18.5 nm (34.3 km) NE. Retrieved 2019/07/23 14:50 UTC (19 minutes ago):

MUCM 231450Z 18006KT 9000 SCT020 30/24 Q1017

TAF (pilot weather forecast)

Closest forecast is Ignacio Agramonte International Airport, 18.5 nm (34.3 km) NE. Retrieved 2019/07/23 12:03 UTC (3 hours ago):

TAF MUCM 231100Z 2312/2412 VRB03KT 9000 SCT020 BECMG 2315/2317 18008KT TEMPO 2318/2324 3000 TSRA SCT018CB BKN020 BECMG 2401/2403 VRB03KT